createdAt,value
2018-07-16T00:00:05.299Z,996.4
2018-07-16T00:01:15.371Z,996.41
2018-07-16T00:02:25.196Z,996.43
2018-07-16T00:03:35.004Z,996.41
2018-07-16T00:04:44.813Z,996.43
2018-07-16T00:05:54.902Z,996.41
2018-07-16T00:07:04.989Z,996.46
2018-07-16T00:08:14.801Z,996.44
2018-07-16T00:09:24.678Z,996.42
2018-07-16T00:10:34.759Z,996.45
2018-07-16T00:11:44.818Z,996.43
2018-07-16T00:12:54.632Z,996.41
2018-07-16T00:14:04.719Z,996.41
2018-07-16T00:15:14.793Z,996.4
2018-07-16T00:16:24.872Z,996.36
2018-07-16T00:17:34.962Z,996.34
2018-07-16T00:18:44.510Z,996.34
2018-07-16T00:19:54.597Z,996.32
2018-07-16T00:21:04.453Z,996.34
2018-07-16T00:22:14.253Z,996.37
2018-07-16T00:23:24.364Z,996.34
2018-07-16T00:24:34.179Z,996.33
2018-07-16T00:25:43.979Z,996.36
2018-07-16T00:26:54.121Z,996.4
2018-07-16T00:28:03.937Z,996.41
2018-07-16T00:29:13.997Z,996.41
2018-07-16T00:30:24.064Z,996.41
2018-07-16T00:31:34.142Z,996.37
2018-07-16T00:32:44.222Z,996.41
2018-07-16T00:33:54.284Z,996.46
2018-07-16T00:35:04.402Z,996.42
2018-07-16T00:36:14.482Z,996.38
2018-07-16T00:37:24.543Z,996.42
2018-07-16T00:38:34.660Z,996.4
2018-07-16T00:39:44.455Z,996.36
2018-07-16T00:40:54.545Z,996.42
2018-07-16T00:42:04.625Z,996.38
2018-07-16T00:43:14.687Z,996.31
2018-07-16T00:44:24.822Z,996.34
2018-07-16T00:45:35.315Z,996.27
2018-07-16T00:46:45.398Z,996.28
2018-07-16T00:47:55.216Z,996.31
2018-07-16T00:49:05.292Z,996.33
2018-07-16T00:50:14.837Z,996.36
2018-07-16T00:51:24.916Z,996.32
2018-07-16T00:52:34.988Z,996.31
2018-07-16T00:53:44.793Z,996.35
2018-07-16T00:54:54.892Z,996.28
2018-07-16T00:56:05.002Z,996.26
2018-07-16T00:57:15.073Z,996.23
2018-07-16T00:58:25.154Z,996.2
2018-07-16T00:59:35.232Z,996.2
2018-07-16T01:00:45.080Z,996.19
2018-07-16T01:01:55.142Z,996.15
2018-07-16T01:03:05.205Z,996.16
2018-07-16T01:04:15.292Z,996.13
2018-07-16T01:05:25.098Z,996.15
2018-07-16T01:06:34.925Z,996.15
2018-07-16T01:07:44.993Z,996.15
2018-07-16T01:08:54.813Z,996.18
2018-07-16T01:10:04.891Z,996.19
2018-07-16T01:11:14.971Z,996.19
2018-07-16T01:12:24.784Z,996.16
2018-07-16T01:13:34.847Z,996.18
2018-07-16T01:14:44.905Z,996.13
2018-07-16T01:15:54.991Z,996.14
2018-07-16T01:17:04.807Z,996.15
2018-07-16T01:18:14.863Z,996.11
2018-07-16T01:19:24.930Z,996.09
2018-07-16T01:20:35.012Z,996.1
2018-07-16T01:21:44.814Z,996.05
2018-07-16T01:22:54.874Z,996.06
2018-07-16T01:24:04.959Z,996.08
2018-07-16T01:25:14.774Z,996.07
2018-07-16T01:26:24.850Z,996.13
2018-07-16T01:27:34.665Z,996.11
2018-07-16T01:28:44.748Z,996.12
2018-07-16T01:29:54.811Z,996.1
2018-07-16T01:31:04.648Z,996.14
2018-07-16T01:32:14.786Z,996.11
2018-07-16T01:33:24.837Z,996.13
2018-07-16T01:34:34.902Z,996.13
2018-07-16T01:35:44.441Z,996.13
2018-07-16T01:36:54.509Z,996.12
2018-07-16T01:38:04.588Z,996.12
2018-07-16T01:39:14.131Z,996.13
2018-07-16T01:40:24.193Z,996.14
2018-07-16T01:41:34.288Z,996.16
2018-07-16T01:42:44.394Z,996.16
2018-07-16T01:43:54.468Z,996.13
2018-07-16T01:45:04.290Z,996.14
2018-07-16T01:46:14.354Z,996.12
2018-07-16T01:47:24.152Z,996.12
2018-07-16T01:48:33.960Z,996.08
2018-07-16T01:49:44.022Z,996.07
2018-07-16T01:50:53.311Z,996.08
2018-07-16T01:52:03.128Z,996.09
2018-07-16T01:53:13.199Z,996.08
2018-07-16T01:54:22.995Z,996.06
2018-07-16T01:55:33.054Z,996.08
2018-07-16T01:56:43.131Z,996.07
2018-07-16T01:57:53.196Z,996.07
2018-07-16T01:59:03.271Z,996.03
2018-07-16T02:00:13.348Z,996.1
2018-07-16T02:01:23.440Z,996.05
2018-07-16T02:02:33.275Z,996.02
2018-07-16T02:03:43.341Z,996.03
2018-07-16T02:04:53.414Z,996.01
2018-07-16T02:06:03.495Z,996.01
2018-07-16T02:07:13.580Z,996.01
2018-07-16T02:08:23.652Z,996
2018-07-16T02:09:33.723Z,996.03
2018-07-16T02:10:43.782Z,996.02
2018-07-16T02:11:53.919Z,996.02
2018-07-16T02:13:04.002Z,995.99
2018-07-16T02:14:13.555Z,996
2018-07-16T02:15:23.629Z,995.98
2018-07-16T02:16:33.450Z,996
2018-07-16T02:17:43.266Z,996
2018-07-16T02:18:53.351Z,995.97
2018-07-16T02:20:03.434Z,996.01
2018-07-16T02:21:13.533Z,996.01
2018-07-16T02:22:23.638Z,996.03
2018-07-16T02:23:33.827Z,995.98
2018-07-16T02:24:43.666Z,996.03
2018-07-16T02:25:53.734Z,996.05
2018-07-16T02:27:03.807Z,996.02
2018-07-16T02:28:13.883Z,996.05
2018-07-16T02:29:23.769Z,996.01
2018-07-16T02:30:33.851Z,996.01
2018-07-16T02:31:43.936Z,996.02
2018-07-16T02:32:54.001Z,996.01
2018-07-16T02:34:04.082Z,995.98
2018-07-16T02:35:14.236Z,995.96
2018-07-16T02:36:24.318Z,995.95
2018-07-16T02:37:34.386Z,995.95
2018-07-16T02:38:44.474Z,995.92
2018-07-16T02:39:55.841Z,995.94
2018-07-16T02:41:05.957Z,995.9
2018-07-16T02:42:16.056Z,995.86
2018-07-16T02:43:26.117Z,995.86
2018-07-16T02:44:35.929Z,995.87
2018-07-16T02:45:45.996Z,995.89
2018-07-16T02:46:55.843Z,995.86
2018-07-16T02:48:05.919Z,995.9
2018-07-16T02:49:15.984Z,995.91
2018-07-16T02:50:26.062Z,995.89
2018-07-16T02:51:36.129Z,995.87
2018-07-16T02:52:45.960Z,995.9
2018-07-16T02:53:56.035Z,995.89
2018-07-16T02:55:06.103Z,995.9
2018-07-16T02:56:16.260Z,995.84
2018-07-16T02:57:26.761Z,995.88
2018-07-16T02:58:36.575Z,995.83
2018-07-16T02:59:46.405Z,995.86
2018-07-16T03:00:56.234Z,995.87
2018-07-16T03:02:06.043Z,995.88
2018-07-16T03:35:14.679Z,995.85
2018-07-16T03:36:24.740Z,995.86
2018-07-16T03:37:34.281Z,995.9
2018-07-16T03:38:44.334Z,995.9
2018-07-16T03:39:54.392Z,995.9
2018-07-16T03:41:04.457Z,995.9
2018-07-16T03:42:14.263Z,995.88
2018-07-16T03:43:24.342Z,995.93
2018-07-16T03:44:34.421Z,995.89
2018-07-16T03:45:44.481Z,995.93
2018-07-16T03:46:54.584Z,995.92
2018-07-16T03:48:04.404Z,995.93
2018-07-16T03:49:14.448Z,995.94
2018-07-16T03:50:24.521Z,995.97
2018-07-16T03:51:34.606Z,995.95
2018-07-16T03:52:44.727Z,996
2018-07-16T03:53:54.792Z,995.98
2018-07-16T03:55:04.597Z,996
2018-07-16T03:56:14.171Z,996.02
2018-07-16T03:57:24.258Z,996
2018-07-16T03:58:34.380Z,996.03
2018-07-16T03:59:44.435Z,996.02
2018-07-16T04:00:54.250Z,996.04
2018-07-16T04:02:04.316Z,996.03
2018-07-16T04:03:14.394Z,996.03
2018-07-16T04:04:23.998Z,996.03
2018-07-16T04:05:34.076Z,996.02
2018-07-16T04:06:43.886Z,996.06
2018-07-16T04:07:53.700Z,996.05
2018-07-16T04:09:03.762Z,996.01
2018-07-16T04:10:13.831Z,996.01
2018-07-16T04:11:23.637Z,996.01
2018-07-16T04:12:33.715Z,995.98
2018-07-16T04:13:43.636Z,996.01
2018-07-16T04:14:53.703Z,996.03
2018-07-16T04:16:03.828Z,996.06
2018-07-16T04:17:13.899Z,996.06
2018-07-16T04:18:23.977Z,996.06
2018-07-16T04:19:33.528Z,996.08
2018-07-16T04:20:43.593Z,996.02
2018-07-16T04:21:53.662Z,995.99
2018-07-16T04:23:03.728Z,995.97
2018-07-16T04:24:13.795Z,995.97
2018-07-16T04:25:23.613Z,995.99
2018-07-16T04:26:33.710Z,996.02
2018-07-16T04:27:43.778Z,996.34
2018-07-16T04:28:53.593Z,996.54
2018-07-16T04:30:03.710Z,996.51
2018-07-16T04:31:13.522Z,996.52
2018-07-16T04:32:23.343Z,996.49
2018-07-16T04:33:33.163Z,996.48
2018-07-16T04:34:43.224Z,996.45
2018-07-16T04:35:53.313Z,996.38
2018-07-16T04:37:03.405Z,996.34
2018-07-16T04:38:13.478Z,996.35
2018-07-16T04:39:23.591Z,996.31
2018-07-16T04:40:33.404Z,996.31
2018-07-16T04:41:42.957Z,996.33
2018-07-16T04:42:53.049Z,996.3
2018-07-16T04:44:02.884Z,996.3
2018-07-16T04:45:12.456Z,996.32
2018-07-16T04:46:22.271Z,996.28
2018-07-16T04:47:32.419Z,996.36
2018-07-16T04:48:42.246Z,996.34
2018-07-16T04:49:52.331Z,996.33
2018-07-16T04:51:02.203Z,996.38
2018-07-16T04:52:12.292Z,996.42
2018-07-16T04:53:22.387Z,996.41
2018-07-16T04:54:32.446Z,996.4
2018-07-16T04:55:42.266Z,996.45
2018-07-16T04:56:51.847Z,996.41
2018-07-16T04:58:01.674Z,996.45
2018-07-16T04:59:11.498Z,996.44
2018-07-16T05:00:21.310Z,996.44
2018-07-16T05:01:31.397Z,996.47
2018-07-16T05:02:41.257Z,996.5
2018-07-16T05:03:51.332Z,996.43
2018-07-16T05:05:01.169Z,996.38
2018-07-16T05:06:10.462Z,996.36
2018-07-16T05:07:20.549Z,996.33
2018-07-16T05:08:30.610Z,996.23
2018-07-16T05:09:40.689Z,996.27
2018-07-16T05:10:50.503Z,996.29
2018-07-16T05:12:00.327Z,996.27
2018-07-16T05:13:10.479Z,996.27
2018-07-16T05:14:20.563Z,996.29
2018-07-16T05:15:30.386Z,996.31
2018-07-16T05:16:40.448Z,996.34
2018-07-16T05:17:50.534Z,996.39
2018-07-16T05:19:00.791Z,996.46
2018-07-16T05:20:10.873Z,996.79
2018-07-16T05:21:20.989Z,997.09
2018-07-16T05:22:30.602Z,997.02
2018-07-16T05:23:40.735Z,997
2018-07-16T05:24:50.829Z,996.91
2018-07-16T05:26:00.907Z,996.74
2018-07-16T05:27:11.002Z,996.87
2018-07-16T05:28:21.094Z,996.93
2018-07-16T05:29:31.162Z,996.86
2018-07-16T05:30:41.224Z,996.79
2018-07-16T05:31:51.446Z,996.63
2018-07-16T05:33:02.365Z,996.56
2018-07-16T05:34:12.441Z,996.74
2018-07-16T05:35:22.529Z,996.73
2018-07-16T05:36:32.612Z,996.72
2018-07-16T05:37:42.714Z,996.73
2018-07-16T05:38:52.795Z,996.84
2018-07-16T05:40:02.851Z,996.83
2018-07-16T05:41:12.415Z,996.86
2018-07-16T05:42:22.496Z,996.79
2018-07-16T05:43:32.356Z,996.82
2018-07-16T05:44:42.436Z,996.81
2018-07-16T05:45:52.244Z,996.82
2018-07-16T05:47:02.053Z,996.76
2018-07-16T05:48:12.135Z,996.68
2018-07-16T05:49:22.284Z,996.55
2018-07-16T05:50:32.363Z,996.35
2018-07-16T05:51:42.450Z,996.35
2018-07-16T05:52:52.546Z,996.34
2018-07-16T05:54:02.642Z,996.39
2018-07-16T05:55:12.750Z,996.44
2018-07-16T05:56:22.832Z,996.44
2018-07-16T05:57:32.903Z,996.43
2018-07-16T05:58:43.003Z,996.35
2018-07-16T05:59:53.068Z,996.43
2018-07-16T06:01:03.142Z,996.43
2018-07-16T06:02:13.221Z,996.45
2018-07-16T06:03:23.302Z,996.41
2018-07-16T06:04:33.380Z,996.42
2018-07-16T06:05:43.459Z,996.45
2018-07-16T06:06:53.541Z,996.43
2018-07-16T06:08:03.610Z,996.46
2018-07-16T06:09:13.410Z,996.41
2018-07-16T06:10:22.695Z,996.47
2018-07-16T06:11:32.762Z,996.43
2018-07-16T06:12:42.854Z,996.43
2018-07-16T06:13:52.678Z,996.46
2018-07-16T06:15:02.804Z,996.44
2018-07-16T06:16:12.869Z,996.44
2018-07-16T06:17:22.940Z,996.41
2018-07-16T06:18:32.770Z,996.41
2018-07-16T06:19:42.926Z,996.38
2018-07-16T06:20:52.741Z,996.34
2018-07-16T06:22:02.813Z,996.26
2018-07-16T06:23:12.896Z,996.23
2018-07-16T06:24:22.982Z,996.25
2018-07-16T06:25:33.082Z,996.23
2018-07-16T06:26:42.900Z,996.22
2018-07-16T06:27:52.983Z,996.17
2018-07-16T06:29:03.062Z,996.21
2018-07-16T06:30:13.183Z,996.12
2018-07-16T06:31:23.278Z,996.14
2018-07-16T06:32:33.145Z,996.12
2018-07-16T06:33:43.463Z,996.14
2018-07-16T06:34:53.286Z,996.13
2018-07-16T06:36:03.362Z,996.13
2018-07-16T06:37:13.466Z,996.15
2018-07-16T06:38:23.551Z,996.13
2018-07-16T06:39:33.695Z,996.16
2018-07-16T06:40:44.545Z,996.16
2018-07-16T06:41:56.339Z,996.17
2018-07-16T06:43:06.191Z,996.16
2018-07-16T06:44:16.020Z,996.19
2018-07-16T06:45:26.131Z,996.22
2018-07-16T06:46:36.242Z,996.17
2018-07-16T06:47:46.317Z,996.15
2018-07-16T06:48:56.921Z,996.13
2018-07-16T06:50:06.999Z,996.19
2018-07-16T06:51:17.137Z,996.12
2018-07-16T06:52:26.961Z,996.17
2018-07-16T06:53:36.781Z,996.15
2018-07-16T06:54:46.619Z,996.16
2018-07-16T06:55:56.694Z,996.16
2018-07-16T06:57:06.563Z,996.13
2018-07-16T06:58:16.377Z,996.09
2018-07-16T06:59:26.469Z,996.13
2018-07-16T07:00:36.326Z,996.13
2018-07-16T07:01:46.398Z,996.14
2018-07-16T07:02:56.501Z,996.11
2018-07-16T07:04:06.609Z,996.11
2018-07-16T07:05:17.078Z,996.13
2018-07-16T07:06:26.910Z,996.12
2018-07-16T07:07:37.228Z,996.14
2018-07-16T07:08:47.351Z,996.07
2018-07-16T07:09:57.531Z,996.02
2018-07-16T07:11:08.043Z,996
2018-07-16T07:12:18.142Z,996.05
2018-07-16T07:13:28.253Z,996.02
2018-07-16T07:14:38.337Z,996.05
2018-07-16T07:15:48.170Z,996.01
2018-07-16T07:16:58.277Z,995.96
2018-07-16T07:18:08.386Z,995.95
2018-07-16T07:19:18.955Z,995.96
2018-07-16T07:20:29.047Z,995.92
2018-07-16T07:21:39.153Z,995.91
2018-07-16T07:22:49.008Z,995.87
2018-07-16T07:23:59.112Z,995.89
2018-07-16T07:25:08.957Z,995.93
2018-07-16T07:26:19.212Z,995.91
2018-07-16T07:27:29.313Z,995.88
2018-07-16T07:28:39.409Z,995.91
2018-07-16T07:29:49.579Z,995.92
2018-07-16T07:30:59.675Z,995.88
2018-07-16T07:32:09.781Z,995.88
2018-07-16T07:33:19.866Z,995.85
2018-07-16T07:34:29.472Z,995.87
2018-07-16T07:35:39.648Z,995.87
2018-07-16T07:36:50.507Z,995.92
2018-07-16T07:38:00.627Z,995.87
2018-07-16T07:39:10.726Z,995.87
2018-07-16T07:40:20.855Z,995.89
2018-07-16T07:41:30.943Z,995.91
2018-07-16T07:42:40.249Z,995.91
2018-07-16T07:43:50.349Z,995.96
2018-07-16T07:45:00.169Z,995.92
2018-07-16T07:46:10.029Z,995.88
2018-07-16T07:47:20.312Z,995.89
2018-07-16T07:48:30.411Z,995.89
2018-07-16T07:49:40.539Z,995.9
2018-07-16T07:50:50.678Z,995.85
2018-07-16T07:52:00.817Z,995.82
2018-07-16T07:53:10.650Z,995.8
2018-07-16T07:54:20.620Z,995.77
2018-07-16T07:55:32.175Z,995.77
2018-07-16T07:56:42.213Z,995.79
2018-07-16T07:57:52.038Z,995.75
2018-07-16T07:59:02.118Z,995.77
2018-07-16T08:00:12.289Z,995.72
2018-07-16T08:01:22.398Z,995.7
2018-07-16T08:02:32.511Z,995.73
2018-07-16T08:03:42.604Z,995.72
2018-07-16T08:04:52.742Z,995.69
2018-07-16T08:06:02.780Z,995.67
2018-07-16T08:07:12.917Z,995.68
2018-07-16T08:08:23.013Z,995.65
2018-07-16T08:09:33.125Z,995.66
2018-07-16T08:10:43.260Z,995.61
2018-07-16T08:11:53.394Z,995.63
2018-07-16T08:13:03.580Z,995.59
2018-07-16T08:14:12.917Z,995.59
2018-07-16T08:15:23.060Z,995.55
2018-07-16T08:16:33.194Z,995.6
2018-07-16T08:17:43.410Z,995.59
2018-07-16T08:18:53.597Z,995.57
2018-07-16T08:20:03.810Z,995.58
2018-07-16T08:21:13.947Z,995.59
2018-07-16T08:22:24.085Z,995.57
2018-07-16T08:23:34.275Z,995.6
2018-07-16T08:24:43.848Z,995.65
2018-07-16T08:25:53.737Z,995.62
2018-07-16T08:27:03.917Z,995.64
2018-07-16T08:28:14.324Z,995.56
2018-07-16T08:29:24.792Z,995.59
2018-07-16T08:30:34.645Z,995.61
2018-07-16T08:31:44.828Z,995.57
2018-07-16T08:32:54.717Z,995.59
2018-07-16T08:34:04.883Z,995.59
2018-07-16T08:35:15.052Z,995.54
2018-07-16T08:36:24.916Z,995.56
2018-07-16T08:37:34.787Z,995.56
2018-07-16T08:38:44.969Z,995.6
2018-07-16T08:39:54.897Z,995.62
2018-07-16T08:41:05.039Z,995.64
2018-07-16T08:42:15.190Z,995.67
2018-07-16T08:43:25.330Z,995.68
2018-07-16T08:44:35.233Z,995.74
2018-07-16T08:45:44.877Z,995.73
2018-07-16T08:46:54.958Z,995.77
2018-07-16T08:48:05.044Z,995.69
2018-07-16T08:49:15.120Z,995.71
2018-07-16T08:50:25.262Z,995.68
2018-07-16T08:51:35.106Z,995.7
2018-07-16T08:52:45.230Z,995.69
2018-07-16T08:53:55.548Z,995.64
2018-07-16T08:55:05.631Z,995.67
2018-07-16T08:56:15.763Z,995.67
2018-07-16T08:57:25.871Z,995.67
2018-07-16T08:58:35.709Z,995.68
2018-07-16T08:59:45.828Z,995.62
2018-07-16T09:00:56.210Z,995.64
2018-07-16T09:02:06.312Z,995.65
2018-07-16T09:03:16.131Z,995.63
2018-07-16T09:04:26.244Z,995.63
2018-07-16T09:05:36.369Z,995.63
2018-07-16T09:06:46.492Z,995.67
2018-07-16T09:07:56.577Z,995.62
2018-07-16T09:09:06.796Z,995.64
2018-07-16T09:10:16.910Z,995.66
2018-07-16T09:11:27.004Z,995.67
2018-07-16T09:12:37.165Z,995.7
2018-07-16T09:13:47.008Z,995.71
2018-07-16T09:14:57.095Z,995.67
2018-07-16T09:16:06.913Z,995.68
2018-07-16T09:17:16.759Z,995.65
2018-07-16T09:18:26.835Z,995.63
2018-07-16T09:19:36.926Z,995.65
2018-07-16T09:20:46.769Z,995.62
2018-07-16T09:21:56.924Z,995.61
2018-07-16T09:23:07.049Z,995.58
2018-07-16T09:24:17.169Z,995.64
2018-07-16T09:25:26.726Z,995.63
2018-07-16T09:26:36.902Z,995.65
2018-07-16T09:27:47.010Z,995.64
2018-07-16T09:28:57.127Z,995.58
2018-07-16T09:30:07.485Z,995.58
2018-07-16T09:31:17.611Z,995.58
2018-07-16T09:32:27.742Z,995.57
2018-07-16T09:33:37.627Z,995.6
2018-07-16T09:34:47.744Z,995.62
2018-07-16T09:35:57.896Z,995.6
2018-07-16T09:37:08.011Z,995.59
2018-07-16T09:38:18.117Z,995.58
2018-07-16T09:39:27.955Z,995.61
2018-07-16T09:40:38.106Z,995.61
2018-07-16T09:41:48.251Z,995.59
2018-07-16T09:42:58.359Z,995.53
2018-07-16T09:44:08.353Z,995.51
2018-07-16T09:45:18.551Z,995.56
2018-07-16T09:46:28.641Z,995.58
2018-07-16T09:47:38.467Z,995.61
2018-07-16T09:48:48.558Z,995.6
2018-07-16T09:49:58.417Z,995.59
2018-07-16T09:51:08.249Z,995.6
2018-07-16T09:52:18.344Z,995.56
2018-07-16T09:53:28.484Z,995.62
2018-07-16T09:54:38.586Z,995.5
2018-07-16T09:55:48.668Z,995.5
2018-07-16T09:56:58.824Z,995.49
2018-07-16T09:58:09.122Z,995.45
2018-07-16T09:59:19.373Z,995.45
2018-07-16T10:00:29.200Z,995.43
2018-07-16T10:01:39.304Z,995.48
2018-07-16T10:02:49.413Z,995.43
2018-07-16T10:03:59.501Z,995.42
2018-07-16T10:05:09.653Z,995.41
2018-07-16T10:06:19.723Z,995.43
2018-07-16T10:07:29.563Z,995.46
2018-07-16T10:08:39.736Z,995.46
2018-07-16T10:09:49.837Z,995.48
2018-07-16T10:10:59.995Z,995.48
2018-07-16T10:12:09.831Z,995.43
2018-07-16T10:13:20.396Z,995.4
2018-07-16T10:14:30.620Z,995.44
2018-07-16T10:15:40.456Z,995.38
2018-07-16T10:16:50.348Z,995.37
2018-07-16T10:18:00.280Z,995.36
2018-07-16T10:19:10.120Z,995.34
2018-07-16T10:20:19.937Z,995.35
2018-07-16T10:21:30.591Z,995.37
2018-07-16T10:22:40.678Z,995.38
2018-07-16T10:23:50.522Z,995.35
2018-07-16T10:25:00.623Z,995.36
2018-07-16T10:26:10.711Z,995.36
2018-07-16T10:27:20.794Z,995.37
2018-07-16T10:28:30.640Z,995.39
2018-07-16T10:29:40.739Z,995.36
2018-07-16T10:30:50.838Z,995.39
2018-07-16T10:32:00.981Z,995.39
2018-07-16T10:33:11.068Z,995.41
2018-07-16T10:34:20.632Z,995.42
2018-07-16T10:35:30.763Z,995.39
2018-07-16T10:36:40.862Z,995.39
2018-07-16T10:37:50.930Z,995.36
2018-07-16T10:39:01.017Z,995.37
2018-07-16T10:40:10.584Z,995.32
2018-07-16T10:41:20.711Z,995.32
2018-07-16T10:42:31.200Z,995.29
2018-07-16T10:43:41.318Z,995.31
2018-07-16T10:44:51.431Z,995.26
2018-07-16T10:46:01.244Z,995.28
2018-07-16T10:47:11.392Z,995.25
2018-07-16T10:48:21.509Z,995.26
2018-07-16T10:49:31.624Z,995.25
2018-07-16T10:50:42.054Z,995.25
2018-07-16T10:51:52.145Z,995.24
2018-07-16T10:53:02.240Z,995.22
2018-07-16T10:54:12.333Z,995.25
2018-07-16T10:55:22.577Z,995.23
2018-07-16T10:56:32.695Z,995.25
2018-07-16T10:57:42.764Z,995.24
2018-07-16T10:58:52.864Z,995.21
2018-07-16T11:00:03.008Z,995.24
2018-07-16T11:01:13.110Z,995.28
2018-07-16T11:02:23.215Z,995.23
2018-07-16T11:03:33.066Z,995.25
2018-07-16T11:04:43.395Z,995.27
2018-07-16T11:05:53.543Z,995.3
2018-07-16T11:07:03.360Z,995.28
2018-07-16T11:08:13.459Z,995.28
2018-07-16T11:09:23.551Z,995.28
2018-07-16T11:10:33.641Z,995.25
2018-07-16T11:11:43.469Z,995.25
2018-07-16T11:12:53.554Z,995.25
2018-07-16T11:14:03.663Z,995.23
2018-07-16T11:15:13.765Z,995.21
2018-07-16T11:16:23.334Z,995.16
2018-07-16T11:17:33.430Z,995.22
2018-07-16T11:18:43.529Z,995.12
2018-07-16T11:19:53.629Z,995.16
2018-07-16T11:21:03.737Z,995.09
2018-07-16T11:22:13.838Z,995.11
2018-07-16T11:23:24.013Z,995.12
2018-07-16T11:24:33.829Z,995.05
2018-07-16T11:25:43.625Z,995.06
2018-07-16T11:26:53.467Z,994.98
2018-07-16T11:28:03.558Z,994.97
2018-07-16T11:29:13.405Z,994.99
2018-07-16T11:30:23.229Z,994.91
2018-07-16T11:31:33.345Z,994.92
2018-07-16T11:32:42.931Z,994.89
2018-07-16T11:33:53.057Z,994.88
2018-07-16T11:35:02.628Z,994.86
2018-07-16T11:36:12.751Z,994.85
2018-07-16T11:37:22.828Z,994.86
2018-07-16T11:38:32.644Z,994.83
2018-07-16T11:39:42.726Z,994.83
2018-07-16T11:40:52.563Z,994.8
2018-07-16T11:42:02.642Z,994.78
2018-07-16T11:43:12.729Z,994.76
2018-07-16T11:44:22.801Z,994.76
2018-07-16T11:45:32.899Z,994.78
2018-07-16T11:46:43.038Z,994.75
2018-07-16T11:47:53.173Z,994.72
2018-07-16T11:49:03.294Z,994.72
2018-07-16T11:50:13.403Z,994.72
2018-07-16T11:51:23.494Z,994.71
2018-07-16T11:52:33.642Z,994.71
2018-07-16T11:53:43.730Z,994.68
2018-07-16T11:54:53.856Z,994.64
2018-07-16T11:56:03.691Z,994.62
2018-07-16T11:57:13.839Z,994.62
2018-07-16T11:58:23.955Z,994.58
2018-07-16T11:59:34.039Z,994.58
2018-07-16T12:00:44.147Z,994.54
2018-07-16T12:01:54.175Z,994.54
2018-07-16T12:03:04.207Z,994.56
2018-07-16T12:04:14.302Z,994.55
2018-07-16T12:05:24.396Z,994.52
2018-07-16T12:06:34.490Z,994.51
2018-07-16T12:07:44.577Z,994.51
2018-07-16T12:08:54.507Z,994.47
2018-07-16T12:10:04.142Z,994.48
2018-07-16T12:11:14.317Z,994.44
2018-07-16T12:12:24.574Z,994.44
2018-07-16T12:13:35.112Z,994.45
2018-07-16T12:14:45.247Z,994.45
2018-07-16T12:15:55.102Z,994.36
2018-07-16T12:17:04.949Z,994.34
2018-07-16T12:18:15.064Z,994.33
2018-07-16T12:19:25.142Z,994.38
2018-07-16T12:20:35.073Z,994.39
2018-07-16T12:21:45.384Z,994.4
2018-07-16T12:22:55.217Z,994.36
2018-07-16T12:24:05.423Z,994.38
2018-07-16T12:25:15.250Z,994.34
2018-07-16T12:26:25.340Z,994.31
2018-07-16T12:27:35.184Z,994.31
2018-07-16T12:28:45.042Z,994.33
2018-07-16T12:29:55.127Z,994.32
2018-07-16T12:31:04.953Z,994.29
2018-07-16T12:32:14.775Z,994.32
2018-07-16T12:33:24.599Z,994.27
2018-07-16T12:34:34.680Z,994.3
2018-07-16T12:35:44.501Z,994.29
2018-07-16T12:36:54.638Z,994.29
2018-07-16T12:38:04.838Z,994.28
2018-07-16T12:39:14.929Z,994.33
2018-07-16T12:40:25.033Z,994.31
2018-07-16T12:41:34.993Z,994.24
2018-07-16T12:42:45.565Z,994.23
2018-07-16T12:43:55.680Z,994.15
2018-07-16T12:45:05.816Z,994.16
2018-07-16T12:46:15.900Z,994.17
2018-07-16T12:47:25.752Z,994.18
2018-07-16T12:48:35.607Z,994.19
2018-07-16T12:49:45.697Z,994.21
2018-07-16T12:50:55.526Z,994.23
2018-07-16T12:52:05.624Z,994.22
2018-07-16T12:53:15.709Z,994.24
2018-07-16T12:54:25.803Z,994.19
2018-07-16T12:55:35.695Z,994.17
2018-07-16T12:56:46.078Z,994.19
2018-07-16T12:57:56.181Z,994.14
2018-07-16T12:59:06.292Z,994.14
2018-07-16T13:00:16.393Z,994.1
2018-07-16T13:01:26.492Z,994.07
2018-07-16T13:02:36.584Z,994.03
2018-07-16T13:03:46.691Z,994.07
2018-07-16T13:04:56.782Z,994.03
2018-07-16T13:06:06.896Z,994.05
2018-07-16T13:07:17.425Z,993.99
2018-07-16T13:08:27.535Z,993.95
2018-07-16T13:09:37.614Z,993.97
2018-07-16T13:10:47.726Z,993.96
2018-07-16T13:11:57.572Z,993.94
2018-07-16T13:13:07.427Z,993.88
2018-07-16T13:14:17.517Z,993.87
2018-07-16T13:15:27.615Z,993.82
2018-07-16T13:16:37.770Z,993.84
2018-07-16T13:17:47.402Z,993.8
2018-07-16T13:18:57.235Z,993.8
2018-07-16T13:20:07.583Z,993.76
2018-07-16T13:21:17.515Z,993.75
2018-07-16T13:22:27.619Z,993.77
2018-07-16T13:23:37.435Z,993.73
2018-07-16T13:24:47.536Z,993.78
2018-07-16T13:25:57.378Z,993.73
2018-07-16T13:27:07.482Z,993.73
2018-07-16T13:28:17.308Z,993.71
2018-07-16T13:29:27.402Z,993.68
2018-07-16T13:30:37.507Z,993.72
2018-07-16T13:31:47.580Z,993.71
2018-07-16T13:32:57.683Z,993.68
2018-07-16T13:34:07.815Z,993.67
2018-07-16T13:35:17.959Z,993.67
2018-07-16T13:36:28.065Z,993.73
2018-07-16T13:37:38.087Z,993.66
2018-07-16T13:38:48.192Z,993.62
2018-07-16T13:39:58.294Z,993.6
2018-07-16T13:41:08.404Z,993.6
2018-07-16T13:42:17.995Z,993.53
2018-07-16T13:43:28.118Z,993.5
2018-07-16T13:44:38.274Z,993.53
2018-07-16T13:45:48.371Z,993.45
2018-07-16T13:46:58.475Z,993.46
2018-07-16T13:48:07.794Z,993.44
2018-07-16T13:49:17.897Z,993.41
2018-07-16T13:50:28.707Z,993.34
2018-07-16T13:51:38.533Z,993.39
2018-07-16T13:52:48.743Z,993.34
2018-07-16T13:53:58.669Z,993.35
2018-07-16T13:55:08.796Z,993.34
2018-07-16T13:56:18.941Z,993.36
2018-07-16T13:57:29.075Z,993.32
2018-07-16T13:58:39.180Z,993.36
2018-07-16T13:59:49.025Z,993.35
2018-07-16T14:00:59.106Z,993.39
2018-07-16T14:02:09.352Z,993.32
2018-07-16T14:03:19.789Z,993.38
2018-07-16T14:04:29.671Z,993.41
2018-07-16T14:05:39.811Z,993.49
2018-07-16T14:06:49.655Z,993.48
2018-07-16T14:07:59.808Z,993.47
2018-07-16T14:09:09.941Z,993.46
2018-07-16T14:10:20.049Z,993.48
2018-07-16T14:11:30.152Z,993.48
2018-07-16T14:12:39.729Z,993.47
2018-07-16T14:13:50.615Z,993.42
2018-07-16T14:15:00.747Z,993.42
2018-07-16T14:16:10.815Z,993.43
2018-07-16T14:17:20.640Z,993.48
2018-07-16T14:18:30.722Z,993.47
2018-07-16T14:19:40.285Z,993.46
2018-07-16T14:20:50.381Z,993.5
2018-07-16T14:22:00.449Z,993.58
2018-07-16T14:23:10.540Z,993.66
2018-07-16T14:24:20.687Z,993.68
2018-07-16T14:25:30.533Z,993.77
2018-07-16T14:26:40.629Z,993.77
2018-07-16T14:27:50.724Z,993.78
2018-07-16T14:29:00.808Z,993.87
2018-07-16T14:30:10.924Z,993.9
2018-07-16T14:31:20.920Z,993.89
2018-07-16T14:32:31.048Z,993.88
2018-07-16T14:33:41.159Z,993.87
2018-07-16T14:34:51.000Z,993.87
2018-07-16T14:36:01.140Z,993.88
2018-07-16T14:37:11.245Z,993.94
2018-07-16T14:38:21.332Z,993.88
2018-07-16T14:39:31.609Z,993.88
2018-07-16T14:40:42.082Z,993.87
2018-07-16T14:41:52.177Z,993.85
2018-07-16T14:43:02.019Z,993.77
2018-07-16T14:44:12.128Z,993.79
2018-07-16T14:45:21.965Z,993.78
2018-07-16T14:46:32.290Z,993.81
2018-07-16T14:47:42.422Z,993.76
2018-07-16T14:48:52.697Z,993.77
2018-07-16T14:50:02.802Z,993.81
2018-07-16T14:51:12.971Z,993.77
2018-07-16T14:52:23.065Z,993.75
2018-07-16T14:53:32.915Z,993.73
2018-07-16T14:54:43.012Z,993.78
2018-07-16T14:55:53.106Z,993.79
2018-07-16T14:57:03.209Z,993.8
2018-07-16T14:58:13.772Z,993.8
2018-07-16T14:59:23.854Z,993.74
2018-07-16T15:00:33.966Z,993.74
2018-07-16T15:01:44.059Z,993.67
2018-07-16T15:02:54.162Z,993.64
2018-07-16T15:04:04.252Z,993.63
2018-07-16T15:05:14.347Z,993.66
2018-07-16T15:06:23.992Z,993.72
2018-07-16T15:07:34.077Z,993.71